Time;durP1;ratioP1;P1;durP2;ratioP2;P2;SDS_P1;SDS_P2;PMS_P1;PMS_P2;Temp;Humidity;BMP_temperature;BMP_pressure;BME280_temperature;BME280_humidity;BME280_pressure;Samples;Min_cycle;Max_cycle;Signal;HPM_P1;HPM_P2
2022/11/27 04:54:45;;;;;;;7.72;2.92;;;14.00;69.40;;;;;;5837800;23;20062;-74
2022/11/27 04:57:12;;;;;;;13.43;3.20;;;14.20;69.10;;;;;;4887133;29;20057;-75
2022/11/27 05:03:21;;;;;;;9.57;2.67;;;14.50;68.90;;;;;;4865620;29;20069;-73
2022/11/27 05:05:56;;;;;;;8.77;2.60;;;14.70;68.80;;;;;;4896974;29;20037;-76
2022/11/27 05:08:24;;;;;;;14.88;3.05;;;14.70;69.00;;;;;;4866452;29;20080;-76
2022/11/27 05:11:06;;;;;;;9.30;2.55;;;14.90;69.10;;;;;;4866817;29;20091;-78
2022/11/27 05:13:43;;;;;;;9.73;3.33;;;15.00;69.10;;;;;;4897659;29;20460;-77
2022/11/27 05:16:39;;;;;;;8.88;2.13;;;15.10;69.00;;;;;;4895337;29;20049;-77
2022/11/27 05:19:47;;;;;;;11.23;2.63;;;15.20;69.10;;;;;;4887544;29;20080;-77
2022/11/27 05:23:03;;;;;;;16.35;3.20;;;15.20;69.00;;;;;;4873188;29;20055;-78
2022/11/27 05:25:29;;;;;;;13.13;2.72;;;15.30;69.20;;;;;;4848119;29;20377;-81
2022/11/27 05:28:15;;;;;;;10.43;2.28;;;15.50;69.00;;;;;;4835057;29;20215;-77
2022/11/27 05:38:51;;;;;;;9.55;2.78;;;15.50;69.10;;;;;;4777721;30;20059;-78
2022/11/27 05:45:57;;;;;;;8.88;2.17;;;15.50;68.80;;;;;;4839143;29;20053;-79
2022/11/27 05:48:29;;;;;;;13.32;2.30;;;15.60;69.10;;;;;;4823455;29;20365;-77
2022/11/27 05:50:55;;;;;;;14.98;2.85;;;15.60;69.00;;;;;;4881524;29;20092;-78
2022/11/27 05:53:20;;;;;;;9.38;2.55;;;15.70;69.40;;;;;;4896519;29;20053;-78
2022/11/27 05:55:46;;;;;;;20.38;3.08;;;15.70;69.30;;;;;;4881855;29;20148;-77
2022/11/27 05:58:12;;;;;;;8.75;2.45;;;15.70;69.40;;;;;;4882070;29;20064;-77
2022/11/27 06:00:38;;;;;;;15.05;3.25;;;15.70;69.30;;;;;;4881766;29;20152;-79
2022/11/27 06:03:03;;;;;;;13.43;2.67;;;15.70;69.80;;;;;;4896573;29;20459;-78
2022/11/27 06:05:29;;;;;;;13.20;3.50;;;15.60;69.90;;;;;;4883672;29;20044;-76
2022/11/27 06:07:55;;;;;;;9.90;2.45;;;15.60;70.10;;;;;;4894865;29;20047;-79
2022/11/27 06:10:20;;;;;;;21.65;5.20;;;15.50;70.20;;;;;;4884071;29;20053;-75
2022/11/27 06:12:46;;;;;;;12.02;3.33;;;15.50;70.30;;;;;;4893456;29;20392;-76
2022/11/27 06:15:12;;;;;;;20.17;3.45;;;15.50;69.60;;;;;;4900839;29;20123;-82
2022/11/27 06:17:37;;;;;;;13.43;4.07;;;15.50;68.60;;;;;;4883915;29;20127;-77
2022/11/27 06:20:03;;;;;;;11.13;3.35;;;15.40;67.30;;;;;;4884267;29;20064;-78
2022/11/27 06:22:29;;;;;;;13.88;3.90;;;15.30;66.50;;;;;;4890214;29;20053;-79
2022/11/27 06:24:55;;;;;;;20.85;3.63;;;15.20;66.60;;;;;;4896204;29;20092;-80
2022/11/27 06:27:21;;;;;;;16.60;2.90;;;15.10;67.10;;;;;;4896398;29;20092;-80
2022/11/27 06:29:47;;;;;;;16.73;3.70;;;15.00;67.60;;;;;;4880593;29;20037;-81
2022/11/27 06:32:12;;;;;;;16.33;3.10;;;15.00;67.90;;;;;;4888662;29;20128;-78
2022/11/27 06:34:38;;;;;;;14.95;2.92;;;15.00;68.30;;;;;;4900243;29;20107;-80
2022/11/27 06:37:04;;;;;;;19.50;4.10;;;14.90;68.40;;;;;;4884201;29;20064;-79
2022/11/27 06:39:29;;;;;;;13.98;3.00;;;14.90;68.90;;;;;;4900515;29;20048;-79
2022/11/27 06:41:55;;;;;;;12.82;2.80;;;14.90;69.20;;;;;;4894616;29;20068;-77
2022/11/27 06:44:21;;;;;;;12.27;2.85;;;14.90;69.80;;;;;;4881316;29;20052;-75
2022/11/27 06:46:46;;;;;;;9.85;3.13;;;14.90;67.80;;;;;;4881769;29;20215;-78
2022/11/27 06:49:34;;;;;;;10.65;3.55;;;14.80;65.10;;;;;;4881450;29;20056;-80
2022/11/27 06:54:54;;;;;;;9.85;2.78;;;14.50;63.20;;;;;;4881216;29;20044;-80
2022/11/27 06:57:20;;;;;;;10.70;3.42;;;14.50;63.70;;;;;;4864885;29;20052;-79
2022/11/27 06:59:48;;;;;;;9.40;3.38;;;14.40;64.00;;;;;;4895851;29;20037;-79
2022/11/27 07:02:14;;;;;;;14.05;3.47;;;14.40;64.30;;;;;;4891918;29;20041;-78
2022/11/27 07:04:40;;;;;;;16.88;3.53;;;14.40;64.70;;;;;;4850117;29;20049;-79
2022/11/27 07:07:06;;;;;;;12.23;3.42;;;14.30;65.20;;;;;;4849807;29;20349;-79
2022/11/27 07:09:31;;;;;;;13.95;3.63;;;14.30;65.70;;;;;;4849277;29;20060;-80
2022/11/27 07:12:28;;;;;;;14.93;3.00;;;14.30;66.20;;;;;;4867546;29;20044;-80
2022/11/27 07:15:07;;;;;;;21.23;4.00;;;14.30;66.70;;;;;;4868425;29;20052;-81
2022/11/27 07:18:07;;;;;;;17.05;3.65;;;14.30;67.30;;;;;;4899829;29;20048;-80
2022/11/27 07:21:08;;;;;;;16.33;3.60;;;14.30;67.00;;;;;;4882824;29;20049;-78
2022/11/27 07:23:35;;;;;;;24.52;4.50;;;14.30;67.10;;;;;;4866895;29;20045;-80
2022/11/27 07:26:21;;;;;;;20.30;3.65;;;14.30;67.40;;;;;;4881064;29;20048;-76
2022/11/27 07:28:48;;;;;;;17.73;4.63;;;14.30;65.70;;;;;;4881129;29;20409;-76
2022/11/27 07:31:17;;;;;;;13.40;4.57;;;14.20;63.60;;;;;;4880891;29;20048;-75
2022/11/27 07:33:43;;;;;;;12.43;3.50;;;14.20;62.70;;;;;;4880762;29;20053;-77
2022/11/27 07:36:15;;;;;;;16.40;4.05;;;14.10;62.70;;;;;;4900085;29;20072;-77
2022/11/27 07:38:41;;;;;;;13.55;3.85;;;14.10;63.00;;;;;;4903498;29;20048;-76
2022/11/27 07:41:08;;;;;;;17.77;3.45;;;14.00;63.20;;;;;;4903028;29;20103;-77
2022/11/27 07:43:34;;;;;;;12.57;3.08;;;14.10;63.60;;;;;;4887482;29;20052;-75
2022/11/27 07:46:09;;;;;;;15.55;3.55;;;14.20;63.90;;;;;;4884399;29;20049;-78
2022/11/27 07:48:36;;;;;;;19.63;3.92;;;14.20;64.00;;;;;;4884445;29;20112;-79
2022/11/27 07:51:05;;;;;;;17.35;3.65;;;14.40;64.20;;;;;;4868036;29;20056;-79
2022/11/27 07:53:31;;;;;;;10.55;3.47;;;14.60;64.20;;;;;;4884528;29;20064;-77
2022/11/27 07:56:00;;;;;;;15.38;3.25;;;14.60;64.40;;;;;;4882674;29;20057;-77
2022/11/27 07:58:28;;;;;;;15.88;3.50;;;14.70;64.50;;;;;;4883396;29;20057;-78
2022/11/27 08:00:59;;;;;;;16.48;3.30;;;14.80;64.50;;;;;;4884466;29;20056;-82
2022/11/27 08:03:28;;;;;;;13.48;2.58;;;14.90;64.60;;;;;;4896990;29;20815;-80
2022/11/27 08:05:59;;;;;;;14.35;3.17;;;14.90;64.70;;;;;;4898643;29;20072;-78
2022/11/27 08:08:34;;;;;;;13.43;3.20;;;14.90;64.80;;;;;;4898710;29;20472;-80
2022/11/27 08:10:59;;;;;;;16.63;3.00;;;14.90;64.90;;;;;;4883563;29;20480;-80
2022/11/27 08:13:25;;;;;;;14.27;2.80;;;14.90;65.30;;;;;;4885817;29;20123;-80
2022/11/27 08:15:51;;;;;;;15.55;3.03;;;14.90;65.50;;;;;;4903040;29;20108;-79
2022/11/27 08:18:16;;;;;;;25.38;3.38;;;14.90;65.70;;;;;;4902395;29;20059;-78
2022/11/27 08:20:42;;;;;;;13.65;3.35;;;14.90;66.00;;;;;;4886806;29;20069;-79
2022/11/27 08:23:08;;;;;;;13.65;2.67;;;14.90;66.20;;;;;;4891548;29;20044;-77
2022/11/27 08:25:33;;;;;;;16.52;3.08;;;14.80;66.30;;;;;;4915864;29;20090;-77
2022/11/27 08:27:59;;;;;;;9.75;2.50;;;14.90;66.40;;;;;;4920277;29;20066;-80
2022/11/27 08:30:27;;;;;;;11.48;2.30;;;14.80;66.40;;;;;;4885784;29;20053;-82
2022/11/27 08:32:53;;;;;;;12.10;2.35;;;14.80;66.50;;;;;;4885862;29;20049;-77
2022/11/27 08:35:19;;;;;;;17.63;3.28;;;14.70;66.70;;;;;;4902176;29;20126;-79
2022/11/27 08:37:45;;;;;;;12.57;2.67;;;14.70;66.90;;;;;;4902341;29;20136;-79
2022/11/27 08:40:22;;;;;;;7.97;2.35;;;14.70;66.90;;;;;;4904381;29;20044;-83
2022/11/27 08:42:47;;;;;;;15.10;2.90;;;14.70;66.80;;;;;;4886347;29;20044;-79
2022/11/27 08:45:13;;;;;;;8.50;2.42;;;14.70;66.90;;;;;;4900001;29;20532;-79
2022/11/27 08:47:39;;;;;;;9.48;2.28;;;14.60;66.80;;;;;;4902037;29;20108;-77
2022/11/27 08:50:05;;;;;;;14.35;2.97;;;14.60;66.90;;;;;;4902153;29;20412;-74
2022/11/27 08:52:31;;;;;;;13.82;2.67;;;14.70;67.00;;;;;;4901857;29;20136;-82
2022/11/27 08:54:58;;;;;;;15.25;2.67;;;14.60;67.00;;;;;;4901528;29;20432;-78
2022/11/27 08:57:24;;;;;;;13.77;2.95;;;14.60;66.80;;;;;;4866836;29;20452;-78
2022/11/27 08:59:49;;;;;;;18.02;3.67;;;14.60;66.40;;;;;;4882285;29;20124;-79
2022/11/27 09:02:15;;;;;;;9.18;2.58;;;14.60;66.70;;;;;;4883257;29;20132;-80
2022/11/27 09:04:41;;;;;;;10.68;2.60;;;14.50;66.90;;;;;;4882345;29;20129;-83
2022/11/27 09:07:06;;;;;;;12.93;2.92;;;14.50;67.10;;;;;;4897801;29;20464;-82
2022/11/27 09:09:32;;;;;;;17.77;3.10;;;14.50;67.40;;;;;;4882112;29;20048;-82
2022/11/27 09:11:58;;;;;;;27.90;3.92;;;14.50;67.70;;;;;;4900780;29;20083;-76
2022/11/27 09:14:23;;;;;;;22.55;3.55;;;14.40;68.00;;;;;;4901562;29;20048;-76
2022/11/27 09:16:50;;;;;;;28.60;4.63;;;14.50;68.30;;;;;;4888947;29;20442;-78
2022/11/27 09:19:16;;;;;;;32.58;3.85;;;14.50;68.10;;;;;;4882941;29;20421;-78
2022/11/27 09:21:44;;;;;;;21.15;3.65;;;14.50;68.10;;;;;;4882684;29;20061;-80
2022/11/27 09:24:10;;;;;;;24.80;3.65;;;14.40;68.10;;;;;;4865993;29;20060;-77
2022/11/27 09:26:35;;;;;;;19.50;3.60;;;14.40;68.20;;;;;;4893083;29;20111;-72
2022/11/27 09:29:02;;;;;;;18.48;3.17;;;14.40;68.20;;;;;;4882484;29;20159;-72
2022/11/27 09:31:28;;;;;;;14.45;3.42;;;14.50;67.70;;;;;;4882027;29;20060;-75
2022/11/27 09:33:54;;;;;;;9.30;2.50;;;14.50;67.00;;;;;;4882612;29;20388;-77
2022/11/27 09:36:22;;;;;;;17.98;3.05;;;14.40;66.40;;;;;;4888622;29;20373;-77
2022/11/27 09:38:49;;;;;;;12.35;3.28;;;14.40;66.10;;;;;;4901130;29;20052;-76
2022/11/27 09:41:38;;;;;;;16.67;3.65;;;14.40;66.20;;;;;;4900889;29;20470;-79
2022/11/27 09:44:26;;;;;;;13.13;3.78;;;14.40;66.40;;;;;;4900753;29;20055;-79
2022/11/27 09:46:55;;;;;;;22.45;4.30;;;14.50;66.50;;;;;;4864219;29;20056;-79
2022/11/27 09:50:08;;;;;;;17.65;5.72;;;14.60;67.00;;;;;;4881102;29;20056;-80
2022/11/27 09:52:43;;;;;;;23.10;9.07;;;14.70;67.60;;;;;;4865612;29;20049;-79
2022/11/27 09:55:45;;;;;;;20.15;8.15;;;14.80;68.30;;;;;;4881738;29;20073;-79
2022/11/27 09:59:18;;;;;;;23.00;8.75;;;14.90;68.50;;;;;;4881045;29;20037;-79
2022/11/27 10:01:47;;;;;;;21.80;8.75;;;15.00;68.80;;;;;;4887473;29;20055;-80
2022/11/27 10:04:19;;;;;;;24.40;10.00;;;15.10;68.70;;;;;;4881141;29;20053;-75
2022/11/27 10:07:00;;;;;;;22.33;7.93;;;15.10;69.10;;;;;;4865215;29;20052;-77
2022/11/27 10:09:36;;;;;;;23.05;6.78;;;15.20;69.00;;;;;;4882085;29;20048;-77
2022/11/27 10:12:21;;;;;;;17.50;6.03;;;15.30;68.20;;;;;;4888794;29;20076;-78
2022/11/27 10:15:15;;;;;;;17.25;6.15;;;15.30;67.30;;;;;;4897376;29;21843;-76
2022/11/27 10:18:19;;;;;;;8.75;4.03;;;15.30;66.20;;;;;;4881482;29;20365;-81
2022/11/27 10:21:14;;;;;;;12.90;4.72;;;15.30;65.40;;;;;;4865331;29;20045;-79
2022/11/27 10:24:13;;;;;;;17.77;4.32;;;15.30;64.90;;;;;;4854652;29;20499;-80
2022/11/27 10:27:25;;;;;;;21.80;4.78;;;15.30;65.00;;;;;;4881291;29;20087;-79
2022/11/27 10:30:16;;;;;;;18.48;3.90;;;15.40;65.50;;;;;;4867572;29;20494;-79
2022/11/27 10:32:55;;;;;;;15.40;4.03;;;15.30;66.20;;;;;;4881354;29;20049;-79
2022/11/27 10:38:40;;;;;;;20.42;3.75;;;15.20;67.20;;;;;;4892459;29;20057;-79
2022/11/27 10:41:28;;;;;;;19.45;4.70;;;15.20;67.40;;;;;;4881879;29;20064;-79
2022/11/27 10:43:59;;;;;;;17.40;3.25;;;15.20;67.70;;;;;;4899566;29;20044;-77
2022/11/27 10:46:28;;;;;;;16.85;3.42;;;15.20;67.80;;;;;;4886021;29;20059;-77
2022/11/27 10:49:00;;;;;;;16.38;3.92;;;15.20;68.20;;;;;;4852263;29;20056;-77
2022/11/27 10:51:35;;;;;;;11.68;3.28;;;15.10;68.60;;;;;;4891770;29;20364;-77
2022/11/27 10:54:03;;;;;;;16.80;3.47;;;15.10;68.50;;;;;;4899876;29;20045;-77
2022/11/27 10:57:05;;;;;;;11.43;2.85;;;15.10;68.60;;;;;;4870107;29;20061;-78
2022/11/27 11:00:14;;;;;;;13.57;4.05;;;15.10;68.50;;;;;;4864211;29;20053;-78
2022/11/27 11:02:40;;;;;;;12.45;3.80;;;15.10;68.10;;;;;;4880837;29;20094;-76
2022/11/27 11:05:21;;;;;;;13.00;3.38;;;15.10;67.60;;;;;;4883051;29;20060;-79
2022/11/27 11:08:03;;;;;;;12.05;3.45;;;15.00;66.70;;;;;;4898719;29;20372;-75
2022/11/27 11:10:42;;;;;;;12.35;3.80;;;15.00;65.80;;;;;;4899555;29;20044;-78
2022/11/27 11:13:15;;;;;;;11.73;3.63;;;15.00;65.10;;;;;;4903816;29;20040;-79
2022/11/27 11:15:47;;;;;;;9.27;3.88;;;14.90;65.10;;;;;;4880673;29;20053;-78
2022/11/27 11:18:26;;;;;;;7.38;2.92;;;14.80;65.00;;;;;;4884944;29;20045;-80
2022/11/27 11:21:03;;;;;;;8.00;3.58;;;14.70;64.80;;;;;;4867931;29;20141;-78
2022/11/27 11:23:39;;;;;;;7.65;2.90;;;14.70;64.90;;;;;;4853372;29;20036;-79
2022/11/27 11:26:30;;;;;;;14.57;3.47;;;14.70;64.80;;;;;;4853085;29;20128;-78
2022/11/27 11:29:19;;;;;;;8.90;2.90;;;14.70;64.90;;;;;;4868242;29;20353;-78
2022/11/27 11:31:53;;;;;;;8.57;2.95;;;14.60;64.90;;;;;;4852375;29;20515;-77
2022/11/27 11:34:24;;;;;;;;;;;14.60;65.30;;;;;;4885191;29;20431;-78
2022/11/27 11:37:05;;;;;;;6.45;2.65;;;14.50;64.90;;;;;;4883813;29;19973;-78
2022/11/27 11:39:46;;;;;;;6.28;2.35;;;14.50;65.40;;;;;;4868377;29;20049;-78
2022/11/27 11:42:21;;;;;;;8.40;2.58;;;14.50;65.40;;;;;;4884605;29;20033;-78
2022/11/27 11:45:02;;;;;;;6.03;2.40;;;14.50;65.50;;;;;;4874406;29;20040;-79
2022/11/27 11:47:28;;;;;;;8.15;2.47;;;14.50;65.60;;;;;;4886434;29;20055;-79
2022/11/27 11:50:00;;;;;;;7.60;2.50;;;14.50;65.70;;;;;;4903310;29;20040;-79
2022/11/27 11:52:36;;;;;;;7.40;2.50;;;14.50;65.80;;;;;;4887150;29;20112;-78
2022/11/27 11:55:25;;;;;;;5.93;2.33;;;14.40;65.80;;;;;;4893907;29;20041;-78
2022/11/27 11:58:19;;;;;;;7.32;2.67;;;14.50;65.90;;;;;;4864454;29;20049;-78
2022/11/27 12:01:04;;;;;;;9.00;3.90;;;14.50;66.10;;;;;;4867421;29;20045;-78
2022/11/27 12:04:07;;;;;;;31.67;6.38;;;14.50;65.60;;;;;;4882742;29;20041;-79
2022/11/27 12:06:48;;;;;;;17.13;4.43;;;14.50;64.60;;;;;;4884305;29;20448;-77
2022/11/27 12:09:30;;;;;;;32.50;5.65;;;14.50;64.60;;;;;;4897316;29;20485;-78
2022/11/27 12:12:45;;;;;;;24.58;5.53;;;14.40;64.50;;;;;;4901335;29;20490;-78
2022/11/27 12:16:10;;;;;;;;;;;;;;;;;;;;;
2022/11/27 12:19:26;;;;;;;17.98;5.13;;;14.40;65.20;;;;;;4887718;29;20465;-78
2022/11/27 12:22:25;;;;;;;18.75;5.15;;;14.30;65.60;;;;;;4833721;29;20077;-80
2022/11/27 12:25:09;;;;;;;29.70;5.05;;;14.30;66.00;;;;;;4884006;29;20056;-79
2022/11/27 12:28:08;;;;;;;19.95;5.22;;;14.30;67.10;;;;;;4867873;29;20049;-79
2022/11/27 12:30:49;;;;;;;32.28;5.82;;;14.30;67.20;;;;;;4884030;29;20144;-80
2022/11/27 12:33:30;;;;;;;22.98;4.68;;;14.30;67.10;;;;;;4883860;29;20055;-78
2022/11/27 12:36:26;;;;;;;17.05;4.78;;;14.30;67.10;;;;;;4866904;29;20053;-80
2022/11/27 12:39:12;;;;;;;25.02;6.03;;;14.30;67.30;;;;;;4883799;29;20367;-80
2022/11/27 12:41:58;;;;;;;16.73;5.97;;;14.30;66.60;;;;;;4867120;29;20060;-81
2022/11/27 12:44:43;;;;;;;16.17;5.72;;;14.30;65.70;;;;;;4883614;29;20073;-81
2022/11/27 12:47:23;;;;;;;17.48;5.10;;;14.30;65.10;;;;;;4866994;29;20045;-79
2022/11/27 12:50:04;;;;;;;19.63;4.90;;;14.30;64.90;;;;;;4867736;29;20123;-80
2022/11/27 12:52:48;;;;;;;12.73;4.82;;;14.30;64.90;;;;;;4902369;29;20097;-81
2022/11/27 12:55:25;;;;;;;16.90;4.55;;;14.30;65.00;;;;;;4869602;29;20124;-80
2022/11/27 12:58:05;;;;;;;13.43;4.57;;;14.30;65.10;;;;;;4884228;29;20045;-80
2022/11/27 13:00:36;;;;;;;9.82;4.00;;;14.30;65.30;;;;;;4851521;29;20045;-82
2022/11/27 13:03:10;;;;;;;12.88;4.63;;;14.30;65.40;;;;;;4883025;29;20481;-80
2022/11/27 13:05:42;;;;;;;7.57;3.50;;;14.30;65.60;;;;;;4851506;29;20440;-80
2022/11/27 13:08:54;;;;;;;8.88;4.05;;;14.20;65.70;;;;;;4853860;29;20067;-81
2022/11/27 13:11:29;;;;;;;9.35;3.35;;;14.30;65.90;;;;;;4899700;29;20063;-80
2022/11/27 13:14:22;;;;;;;10.98;3.53;;;14.20;65.90;;;;;;4900547;29;20428;-80
2022/11/27 13:16:57;;;;;;;9.57;3.17;;;14.20;66.00;;;;;;4900795;29;20052;-80
2022/11/27 13:19:38;;;;;;;9.32;3.03;;;14.20;66.10;;;;;;4873291;29;20368;-81
2022/11/27 13:22:11;;;;;;;10.70;3.60;;;14.20;66.10;;;;;;4851151;29;20087;-80
2022/11/27 13:24:36;;;;;;;9.07;3.90;;;14.20;66.10;;;;;;4866586;29;20376;-81
2022/11/27 13:27:18;;;;;;;9.52;3.60;;;14.20;66.20;;;;;;4866706;29;20036;-80
2022/11/27 13:29:53;;;;;;;7.00;2.72;;;14.20;66.20;;;;;;4864458;29;20083;-81
2022/11/27 13:32:33;;;;;;;6.00;3.35;;;14.20;66.30;;;;;;4884783;29;20352;-79
2022/11/27 13:35:03;;;;;;;14.45;3.95;;;14.20;66.40;;;;;;4900323;29;20041;-80
2022/11/27 13:37:38;;;;;;;9.38;3.75;;;14.20;66.40;;;;;;4885229;29;20059;-80
2022/11/27 13:40:22;;;;;;;9.70;3.00;;;14.20;67.10;;;;;;4867922;29;20449;-80
2022/11/27 13:42:52;;;;;;;;;;;14.20;66.40;;;;;;4881863;29;20073;-80
2022/11/27 13:45:28;;;;;;;5.75;2.85;;;14.20;66.50;;;;;;4881526;29;20018;-80
2022/11/27 13:47:57;;;;;;;4.72;2.55;;;14.20;66.60;;;;;;4866070;29;20056;-80
2022/11/27 13:50:24;;;;;;;6.85;2.58;;;14.20;66.60;;;;;;4881740;29;20349;-80
2022/11/27 13:53:12;;;;;;;7.30;2.97;;;14.20;66.70;;;;;;4850314;29;20083;-81
2022/11/27 13:55:51;;;;;;;6.05;2.78;;;14.20;66.60;;;;;;4865350;29;20053;-81
2022/11/27 13:58:30;;;;;;;5.60;2.60;;;14.20;66.70;;;;;;4882613;29;20080;-81
2022/11/27 14:00:56;;;;;;;4.78;2.40;;;14.20;66.70;;;;;;4899742;29;20045;-80
2022/11/27 14:03:28;;;;;;;5.50;2.50;;;14.10;66.70;;;;;;4865965;29;20111;-81
2022/11/27 14:05:55;;;;;;;4.53;2.40;;;14.10;66.70;;;;;;4865263;29;20528;-80
2022/11/27 14:08:56;;;;;;;5.38;2.40;;;14.20;66.80;;;;;;4865667;29;20059;-80
2022/11/27 14:11:48;;;;;;;4.80;2.63;;;14.20;66.80;;;;;;4881950;29;20048;-80
2022/11/27 14:14:18;;;;;;;5.55;2.22;;;14.20;66.80;;;;;;4868217;29;20112;-80
2022/11/27 14:17:03;;;;;;;7.60;2.35;;;14.10;66.90;;;;;;4899427;29;20056;-81
2022/11/27 14:20:04;;;;;;;3.83;2.13;;;14.10;66.90;;;;;;4900163;29;20048;-79
2022/11/27 14:22:44;;;;;;;4.32;2.25;;;14.10;66.90;;;;;;4873748;29;20150;-80
2022/11/27 14:25:32;;;;;;;6.30;2.20;;;14.10;67.00;;;;;;4865459;29;20045;-80
2022/11/27 14:28:23;;;;;;;3.42;2.13;;;14.10;67.00;;;;;;4865486;29;20453;-80
2022/11/27 14:30:58;;;;;;;3.65;2.50;;;14.10;67.10;;;;;;4864958;29;20116;-80
2022/11/27 14:33:30;;;;;;;3.33;2.10;;;14.10;67.20;;;;;;4864940;29;20080;-79
2022/11/27 14:36:22;;;;;;;4.32;2.40;;;14.10;67.20;;;;;;4900302;29;20044;-81
2022/11/27 14:38:54;;;;;;;4.25;2.58;;;14.10;67.20;;;;;;4866742;29;20058;-80
2022/11/27 14:41:27;;;;;;;4.82;2.42;;;14.10;67.20;;;;;;4883886;29;20044;-80
2022/11/27 14:44:15;;;;;;;3.83;2.67;;;14.10;67.30;;;;;;4880234;29;20126;-80
2022/11/27 14:47:10;;;;;;;6.68;2.60;;;14.10;67.30;;;;;;4881036;29;20349;-80
2022/11/27 14:49:44;;;;;;;5.28;2.47;;;14.10;67.30;;;;;;4849522;29;20045;-81
2022/11/27 14:52:32;;;;;;;3.88;2.17;;;14.00;67.30;;;;;;4865185;29;20105;-80
2022/11/27 14:55:27;;;;;;;3.72;1.92;;;14.00;67.40;;;;;;4864765;29;20113;-79
2022/11/27 14:58:13;;;;;;;3.22;2.30;;;14.00;67.50;;;;;;4881777;29;20052;-80
2022/11/27 15:01:25;;;;;;;5.05;2.45;;;14.00;67.50;;;;;;4864947;29;20132;-81
2022/11/27 15:04:02;;;;;;;4.57;2.70;;;14.00;67.50;;;;;;4862300;29;20476;-80
2022/11/27 15:06:45;;;;;;;3.65;2.30;;;14.00;67.60;;;;;;4880853;29;20052;-81
2022/11/27 15:09:22;;;;;;;6.40;2.80;;;14.00;67.60;;;;;;4865057;29;20037;-80
2022/11/27 15:12:00;;;;;;;5.53;2.42;;;14.00;67.60;;;;;;4865475;29;20040;-80
2022/11/27 15:14:29;;;;;;;7.50;2.20;;;14.00;67.60;;;;;;4882940;29;20188;-80
2022/11/27 15:17:00;;;;;;;2.95;2.17;;;14.00;67.60;;;;;;4900189;29;20052;-81
2022/11/27 15:19:44;;;;;;;4.88;2.00;;;14.00;67.70;;;;;;4878263;29;20384;-80
2022/11/27 15:22:16;;;;;;;4.18;1.92;;;14.00;67.60;;;;;;4883275;29;20059;-80
2022/11/27 15:25:00;;;;;;;4.00;2.08;;;14.00;67.70;;;;;;4899918;29;20167;-81
2022/11/27 15:27:52;;;;;;;4.63;2.25;;;14.00;67.70;;;;;;4883044;29;20127;-79
2022/11/27 15:30:26;;;;;;;4.25;2.30;;;14.00;67.70;;;;;;4882893;29;20376;-81
2022/11/27 15:32:54;;;;;;;3.78;2.30;;;14.00;67.70;;;;;;4882905;29;20120;-79
2022/11/27 15:35:25;;;;;;;;;;;13.90;67.70;;;;;;4883199;29;20052;-79
2022/11/27 15:38:07;;;;;;;4.05;2.63;;;13.90;67.70;;;;;;4883971;29;19923;-80
2022/11/27 15:40:39;;;;;;;4.90;2.22;;;13.90;67.80;;;;;;4886300;29;20047;-80
2022/11/27 15:43:15;;;;;;;3.67;2.20;;;13.90;67.80;;;;;;4883101;29;20044;-80
2022/11/27 15:45:49;;;;;;;3.65;2.00;;;13.90;67.80;;;;;;4882333;29;20060;-80
2022/11/27 15:48:22;;;;;;;3.22;2.17;;;13.90;67.90;;;;;;4898419;29;20049;-80
2022/11/27 15:51:14;;;;;;;3.80;2.42;;;13.90;67.90;;;;;;4881311;29;20052;-80
2022/11/27 15:53:49;;;;;;;3.95;2.05;;;13.90;67.90;;;;;;4850101;29;20052;-80
2022/11/27 15:56:18;;;;;;;4.20;2.10;;;13.90;67.90;;;;;;4864671;29;20494;-80
2022/11/27 15:58:50;;;;;;;3.72;2.17;;;13.90;67.90;;;;;;4884357;29;20360;-79
2022/11/27 16:01:21;;;;;;;3.50;2.10;;;13.90;67.90;;;;;;4898091;29;20405;-79
2022/11/27 16:03:52;;;;;;;3.80;2.33;;;13.90;67.90;;;;;;4883400;29;20330;-79
2022/11/27 16:06:24;;;;;;;3.15;2.25;;;13.90;68.00;;;;;;4867988;29;20041;-79
2022/11/27 16:09:02;;;;;;;3.70;2.03;;;13.90;68.00;;;;;;4882837;29;20508;-81
2022/11/27 16:11:31;;;;;;;3.50;2.40;;;13.90;68.00;;;;;;4871488;29;20076;-80
2022/11/27 16:14:00;;;;;;;4.53;2.30;;;13.90;68.00;;;;;;4902823;29;20064;-80
2022/11/27 16:16:28;;;;;;;3.45;1.75;;;13.80;68.00;;;;;;4885864;29;20041;-80
2022/11/27 16:19:07;;;;;;;3.85;1.75;;;13.90;68.00;;;;;;4886404;29;20053;-79
2022/11/27 16:21:35;;;;;;;4.13;2.40;;;13.90;68.00;;;;;;4897359;29;20037;-81
2022/11/27 16:24:05;;;;;;;3.95;2.20;;;13.90;68.10;;;;;;4883635;29;20425;-79
2022/11/27 16:26:37;;;;;;;3.78;2.05;;;13.90;68.10;;;;;;4867391;29;20198;-80
2022/11/27 16:29:09;;;;;;;3.78;2.90;;;13.80;68.10;;;;;;4882489;29;20041;-80
2022/11/27 16:32:09;;;;;;;2.63;2.03;;;13.90;68.10;;;;;;4868097;29;20052;-80
2022/11/27 16:34:37;;;;;;;2.63;2.28;;;13.80;68.10;;;;;;4882671;29;20051;-79
2022/11/27 16:37:11;;;;;;;2.72;2.10;;;13.80;68.10;;;;;;4867300;29;20037;-80
2022/11/27 16:39:40;;;;;;;;;;;13.80;68.10;;;;;;4867271;29;20053;-81
2022/11/27 16:42:16;;;;;;;2.67;1.65;;;13.80;68.10;;;;;;4876302;29;20296;-81
2022/11/27 16:44:47;;;;;;;3.00;1.90;;;13.80;68.20;;;;;;4885414;29;20079;-80
2022/11/27 16:47:18;;;;;;;3.83;2.20;;;13.80;68.20;;;;;;4885441;29;20052;-80
2022/11/27 16:49:47;;;;;;;3.30;2.00;;;13.80;68.20;;;;;;4885855;29;20414;-79
2022/11/27 16:55:06;;;;;;;3.25;2.38;;;13.80;68.30;;;;;;4863695;29;20099;-79
2022/11/27 16:57:42;;;;;;;3.63;2.17;;;13.80;68.40;;;;;;4866754;29;20063;-79
2022/11/27 17:00:39;;;;;;;3.63;1.90;;;13.80;68.40;;;;;;4866691;29;20104;-80
2022/11/27 17:03:22;;;;;;;2.97;1.92;;;13.80;68.40;;;;;;4884193;29;20036;-80
2022/11/27 18:20:13;;;;;;;5.05;2.58;;;13.60;70.80;;;;;;4894959;29;20150;-76
2022/11/27 18:23:25;;;;;;;5.45;2.70;;;13.60;71.10;;;;;;4893349;29;20067;-78
2022/11/27 18:25:51;;;;;;;8.65;3.13;;;13.60;70.00;;;;;;4899286;29;20177;-77
2022/11/27 18:47:11;;;;;;;6.15;2.55;;;13.50;71.00;;;;;;5089251;23;20041;-79
2022/11/27 19:33:13;;;;;;;5.07;2.10;;;13.20;72.70;;;;;;5159358;24;20049;-80
2022/11/27 20:00:29;;;;;;;11.00;4.35;;;13.20;73.10;;;;;;4810617;29;20459;-78
2022/11/27 20:02:55;;;;;;;7.20;5.38;;;13.30;72.30;;;;;;4810063;29;20053;-80
2022/11/27 20:05:21;;;;;;;9.60;6.38;;;13.30;70.50;;;;;;4794422;29;20050;-75
2022/11/27 20:07:47;;;;;;;8.90;5.28;;;13.20;69.00;;;;;;4810960;29;20067;-80
2022/11/27 20:10:14;;;;;;;9.27;6.13;;;13.00;68.50;;;;;;4810963;29;20055;-78
2022/11/27 20:12:40;;;;;;;7.75;5.80;;;12.90;68.60;;;;;;4809851;29;20054;-77
2022/11/27 20:15:13;;;;;;;11.05;5.93;;;12.80;68.90;;;;;;4810203;29;20051;-79
2022/11/27 20:17:40;;;;;;;9.65;5.57;;;12.60;69.30;;;;;;4795306;29;20481;-80
2022/11/27 20:20:07;;;;;;;8.10;5.30;;;12.70;69.80;;;;;;4794198;29;20462;-80
2022/11/27 20:22:33;;;;;;;7.57;5.75;;;12.80;70.80;;;;;;4794055;29;20078;-85
2022/11/27 20:24:59;;;;;;;8.75;4.97;;;12.80;70.30;;;;;;4810618;29;20097;-81
2022/11/27 20:27:25;;;;;;;9.35;5.25;;;12.90;70.40;;;;;;4810157;29;20058;-80
2022/11/27 20:29:54;;;;;;;6.53;4.45;;;13.00;70.40;;;;;;4809240;29;20038;-73
2022/11/27 20:32:20;;;;;;;8.82;5.75;;;13.00;70.50;;;;;;4810189;29;20057;-80
2022/11/27 20:34:46;;;;;;;7.50;4.70;;;13.00;70.60;;;;;;4794507;29;20366;-78
2022/11/27 20:37:11;;;;;;;12.07;5.22;;;13.00;70.70;;;;;;4794524;29;20051;-81
2022/11/27 20:39:37;;;;;;;16.70;4.82;;;13.00;71.00;;;;;;4810047;29;20094;-81
2022/11/27 20:42:03;;;;;;;10.98;4.68;;;13.00;71.20;;;;;;4809869;29;20121;-81
2022/11/27 20:44:29;;;;;;;9.02;4.25;;;13.00;71.30;;;;;;4805824;29;20494;-80
2022/11/27 20:46:55;;;;;;;8.60;4.35;;;13.00;71.40;;;;;;4809856;29;20057;-80
2022/11/27 20:49:20;;;;;;;10.57;4.47;;;13.00;71.60;;;;;;4794143;29;20062;-79
2022/11/27 20:51:50;;;;;;;8.65;3.72;;;13.00;71.80;;;;;;4810114;29;20067;-78
2022/11/27 20:54:17;;;;;;;8.13;3.40;;;13.00;72.60;;;;;;4794033;29;20134;-78
2022/11/27 20:56:44;;;;;;;9.52;3.60;;;13.00;72.10;;;;;;4810450;29;20187;-79
2022/11/27 20:59:11;;;;;;;7.70;4.05;;;13.00;72.20;;;;;;4809775;29;20055;-79
2022/11/27 21:01:40;;;;;;;5.72;3.78;;;12.90;72.40;;;;;;4810009;29;20386;-80
2022/11/27 21:04:15;;;;;;;6.75;3.72;;;12.90;72.50;;;;;;4776127;30;20156;-79
2022/11/27 21:06:40;;;;;;;7.80;3.72;;;12.90;72.70;;;;;;4775635;30;20086;-80
2022/11/27 21:09:07;;;;;;;6.57;3.60;;;12.90;72.80;;;;;;4792036;30;20091;-78
2022/11/27 21:11:35;;;;;;;5.90;3.33;;;12.90;73.00;;;;;;4791334;29;20051;-79
2022/11/27 21:14:03;;;;;;;4.97;3.03;;;12.90;73.10;;;;;;4790610;30;20092;-79
2022/11/27 21:16:32;;;;;;;8.75;3.42;;;12.90;73.20;;;;;;4790679;30;20487;-79
2022/11/27 21:19:04;;;;;;;5.88;3.35;;;12.90;73.30;;;;;;4790703;30;20063;-80
2022/11/27 21:21:30;;;;;;;5.22;3.08;;;12.90;73.30;;;;;;4791289;30;20458;-78
2022/11/27 21:23:56;;;;;;;5.25;3.40;;;12.80;73.30;;;;;;4791018;30;20066;-78
2022/11/27 21:26:22;;;;;;;4.53;2.75;;;12.80;73.40;;;;;;4775785;30;20055;-80